East Corinth, ME

3:27 AM EDT on August 29, 2016 (GMT -0400)
KMEGARLA2 | | Change Station

Elev 410 ft 45.02 °N, 69.13 °W | Updated 37 seconds ago

Scattered Clouds
Scattered Clouds
78.4 °F
Feels Like 80 °F
N
6.0
Wind Variable Wind from WSW
Gusts 9.0 mph

Today
High -- | Low -- °F
--% Chance of Precip.
Yesterday
High -- | Low -- °F
Precip. -- in
Pressure 30.02 in
Visibility 10.0 miles
Clouds Few 1700 ft
Scattered Clouds 6000 ft
Heat Index 80 °F
Dew Point 60 °F
Humidity 53%
Rainfall 0.11 in
Snow Depth Not available.
5:55 AM 7:17 PM
Waning Crescent, 10% visible
SPECI KBGR 290710Z 18006KT 10SM FEW017 SCT060 18/17 A3002 RMK AO2 T01830172
Pressure 30.02 in
Visibility 10.0 miles
Clouds Few 1700 ft
Scattered Clouds 6000 ft
Heat Index 80 °F
Dew Point 60 °F
Humidity 53%
Rainfall 0.11 in
Snow Depth Not available.
5:55 AM 7:17 PM
Waning Crescent, 10% visible
SPECI KBGR 290710Z 18006KT 10SM FEW017 SCT060 18/17 A3002 RMK AO2 T01830172

10-Day Weather Forecast

Almanac

Astronomy

Aug. 29, 2016 Rise Set
Actual Time
Civil Twilight
Nautical Twilight
Astronomical Twilight
Moon
Length of Visible Light
Length of Day
Tomorrow will be .
, % of the Moon is Illuminated

Today's Extremes

State Highs State Lows

Community

WunderPhotos

Upload Photos

1,935,800 photos uploaded!

WunderBlog® & News

Nearby

Air Quality

  Air Quality AQ Index Pollutant
Not available.

Snow Depth

Station Depth Elevation

Earthquake Activity

City Distance Mag. Time & Date
Minimum magnitude displayed is 2.5.

Coastal Water Temperatures

Place Temperature

Stations

Nearby Weather Stations

Station Location Temp. Windchill Dew Point Humidity Wind Precip. Elev Updated Type
                   

Watches & Warnings

There are currently no watches in effect.